sensor_id;sensor_type;location;lat;lon;timestamp;P1;durP1;ratioP1;P2;durP2;ratioP2
22922;SDS011;11627;51.322;22.816;2023-09-30T00:01:13;32.00;;;19.40;;
22922;SDS011;11627;51.322;22.816;2023-09-30T00:03:40;28.23;;;18.80;;
22922;SDS011;11627;51.322;22.816;2023-09-30T00:06:07;29.20;;;18.20;;
22922;SDS011;11627;51.322;22.816;2023-09-30T00:08:34;33.55;;;19.77;;
22922;SDS011;11627;51.322;22.816;2023-09-30T00:11:01;35.17;;;18.83;;
22922;SDS011;11627;51.322;22.816;2023-09-30T00:13:30;28.70;;;18.33;;
22922;SDS011;11627;51.322;22.816;2023-09-30T00:15:58;32.75;;;20.45;;
22922;SDS011;11627;51.322;22.816;2023-09-30T00:18:25;41.60;;;21.25;;
22922;SDS011;11627;51.322;22.816;2023-09-30T00:20:53;30.90;;;20.00;;
22922;SDS011;11627;51.322;22.816;2023-09-30T00:23:24;35.33;;;20.90;;
22922;SDS011;11627;51.322;22.816;2023-09-30T00:25:51;31.10;;;18.92;;
22922;SDS011;11627;51.322;22.816;2023-09-30T00:28:18;27.83;;;18.02;;
22922;SDS011;11627;51.322;22.816;2023-09-30T00:30:45;31.17;;;19.05;;
22922;SDS011;11627;51.322;22.816;2023-09-30T00:33:13;31.25;;;18.35;;
22922;SDS011;11627;51.322;22.816;2023-09-30T00:35:41;27.77;;;18.35;;
22922;SDS011;11627;51.322;22.816;2023-09-30T00:38:09;30.20;;;17.27;;
22922;SDS011;11627;51.322;22.816;2023-09-30T00:40:36;28.00;;;17.30;;
22922;SDS011;11627;51.322;22.816;2023-09-30T00:43:04;26.75;;;17.98;;
22922;SDS011;11627;51.322;22.816;2023-09-30T00:45:31;33.05;;;18.27;;
22922;SDS011;11627;51.322;22.816;2023-09-30T00:47:58;30.08;;;17.77;;
22922;SDS011;11627;51.322;22.816;2023-09-30T00:50:25;28.48;;;18.52;;
22922;SDS011;11627;51.322;22.816;2023-09-30T00:52:54;33.30;;;18.90;;
22922;SDS011;11627;51.322;22.816;2023-09-30T00:55:22;30.33;;;18.85;;
22922;SDS011;11627;51.322;22.816;2023-09-30T00:57:50;33.20;;;17.73;;
22922;SDS011;11627;51.322;22.816;2023-09-30T01:00:17;33.05;;;17.95;;
22922;SDS011;11627;51.322;22.816;2023-09-30T01:02:44;27.30;;;18.05;;
22922;SDS011;11627;51.322;22.816;2023-09-30T01:05:12;31.30;;;17.65;;
22922;SDS011;11627;51.322;22.816;2023-09-30T01:07:39;29.98;;;18.17;;
22922;SDS011;11627;51.322;22.816;2023-09-30T01:10:05;32.78;;;19.02;;
22922;SDS011;11627;51.322;22.816;2023-09-30T01:12:34;47.03;;;23.50;;
22922;SDS011;11627;51.322;22.816;2023-09-30T01:15:00;31.92;;;18.98;;
22922;SDS011;11627;51.322;22.816;2023-09-30T01:17:29;41.22;;;19.45;;
22922;SDS011;11627;51.322;22.816;2023-09-30T01:19:58;31.02;;;17.90;;
22922;SDS011;11627;51.322;22.816;2023-09-30T01:22:26;40.53;;;19.25;;
22922;SDS011;11627;51.322;22.816;2023-09-30T01:24:56;29.38;;;17.75;;
22922;SDS011;11627;51.322;22.816;2023-09-30T01:27:23;31.58;;;18.65;;
22922;SDS011;11627;51.322;22.816;2023-09-30T01:29:51;36.30;;;20.25;;
22922;SDS011;11627;51.322;22.816;2023-09-30T01:32:19;50.38;;;25.35;;
22922;SDS011;11627;51.322;22.816;2023-09-30T01:34:47;55.15;;;24.80;;
22922;SDS011;11627;51.322;22.816;2023-09-30T01:37:14;47.95;;;23.85;;
22922;SDS011;11627;51.322;22.816;2023-09-30T01:39:43;51.40;;;25.23;;
22922;SDS011;11627;51.322;22.816;2023-09-30T01:42:12;47.42;;;24.63;;
22922;SDS011;11627;51.322;22.816;2023-09-30T01:44:39;34.63;;;19.67;;
22922;SDS011;11627;51.322;22.816;2023-09-30T01:47:06;26.90;;;17.55;;
22922;SDS011;11627;51.322;22.816;2023-09-30T01:49:33;33.55;;;18.23;;
22922;SDS011;11627;51.322;22.816;2023-09-30T01:52:01;30.38;;;18.42;;
22922;SDS011;11627;51.322;22.816;2023-09-30T01:54:30;29.95;;;17.00;;
22922;SDS011;11627;51.322;22.816;2023-09-30T01:56:57;38.47;;;20.42;;
22922;SDS011;11627;51.322;22.816;2023-09-30T01:59:25;46.03;;;21.90;;
22922;SDS011;11627;51.322;22.816;2023-09-30T02:01:54;46.92;;;22.98;;
22922;SDS011;11627;51.322;22.816;2023-09-30T02:04:21;50.60;;;24.10;;
22922;SDS011;11627;51.322;22.816;2023-09-30T02:06:50;34.90;;;20.10;;
22922;SDS011;11627;51.322;22.816;2023-09-30T02:09:17;32.05;;;18.70;;
22922;SDS011;11627;51.322;22.816;2023-09-30T02:11:44;34.78;;;17.77;;
22922;SDS011;11627;51.322;22.816;2023-09-30T02:14:11;27.95;;;17.40;;
22922;SDS011;11627;51.322;22.816;2023-09-30T02:16:41;32.60;;;17.10;;
22922;SDS011;11627;51.322;22.816;2023-09-30T02:19:08;30.67;;;17.67;;
22922;SDS011;11627;51.322;22.816;2023-09-30T02:21:37;29.50;;;17.33;;
22922;SDS011;11627;51.322;22.816;2023-09-30T02:24:04;27.67;;;17.40;;
22922;SDS011;11627;51.322;22.816;2023-09-30T02:26:33;26.67;;;17.55;;
22922;SDS011;11627;51.322;22.816;2023-09-30T02:29:01;33.80;;;17.85;;
22922;SDS011;11627;51.322;22.816;2023-09-30T02:31:28;30.15;;;17.65;;
22922;SDS011;11627;51.322;22.816;2023-09-30T02:33:55;23.88;;;15.93;;
22922;SDS011;11627;51.322;22.816;2023-09-30T02:36:22;22.52;;;15.75;;
22922;SDS011;11627;51.322;22.816;2023-09-30T02:38:49;23.25;;;16.45;;
22922;SDS011;11627;51.322;22.816;2023-09-30T02:41:17;27.20;;;15.75;;
22922;SDS011;11627;51.322;22.816;2023-09-30T02:43:44;26.45;;;15.30;;
22922;SDS011;11627;51.322;22.816;2023-09-30T02:46:12;23.25;;;16.25;;
22922;SDS011;11627;51.322;22.816;2023-09-30T02:48:40;40.17;;;19.90;;
22922;SDS011;11627;51.322;22.816;2023-09-30T02:51:10;47.47;;;22.20;;
22922;SDS011;11627;51.322;22.816;2023-09-30T02:53:38;46.85;;;22.08;;
22922;SDS011;11627;51.322;22.816;2023-09-30T02:56:05;53.38;;;24.00;;
22922;SDS011;11627;51.322;22.816;2023-09-30T02:58:33;51.45;;;23.15;;
22922;SDS011;11627;51.322;22.816;2023-09-30T03:01:01;50.78;;;22.67;;
22922;SDS011;11627;51.322;22.816;2023-09-30T03:03:29;50.15;;;24.08;;
22922;SDS011;11627;51.322;22.816;2023-09-30T03:05:57;40.20;;;20.83;;
22922;SDS011;11627;51.322;22.816;2023-09-30T03:08:23;51.13;;;23.83;;
22922;SDS011;11627;51.322;22.816;2023-09-30T03:10:51;46.60;;;22.33;;
22922;SDS011;11627;51.322;22.816;2023-09-30T03:13:18;41.15;;;20.38;;
22922;SDS011;11627;51.322;22.816;2023-09-30T03:15:47;37.90;;;19.20;;
22922;SDS011;11627;51.322;22.816;2023-09-30T03:18:17;29.48;;;18.33;;
22922;SDS011;11627;51.322;22.816;2023-09-30T03:20:50;28.23;;;18.05;;
22922;SDS011;11627;51.322;22.816;2023-09-30T03:23:35;31.13;;;16.80;;
22922;SDS011;11627;51.322;22.816;2023-09-30T03:26:05;25.55;;;16.45;;
22922;SDS011;11627;51.322;22.816;2023-09-30T03:28:36;26.50;;;16.40;;
22922;SDS011;11627;51.322;22.816;2023-09-30T03:31:04;26.17;;;16.27;;
22922;SDS011;11627;51.322;22.816;2023-09-30T03:33:32;24.17;;;15.60;;
22922;SDS011;11627;51.322;22.816;2023-09-30T03:36:01;28.70;;;16.90;;
22922;SDS011;11627;51.322;22.816;2023-09-30T03:38:29;26.42;;;16.02;;
22922;SDS011;11627;51.322;22.816;2023-09-30T03:40:58;27.75;;;15.80;;
22922;SDS011;11627;51.322;22.816;2023-09-30T03:43:26;29.45;;;16.55;;
22922;SDS011;11627;51.322;22.816;2023-09-30T03:45:53;27.73;;;15.77;;
22922;SDS011;11627;51.322;22.816;2023-09-30T03:48:21;27.10;;;16.08;;
22922;SDS011;11627;51.322;22.816;2023-09-30T03:50:49;31.15;;;15.57;;
22922;SDS011;11627;51.322;22.816;2023-09-30T03:53:19;27.90;;;15.35;;
22922;SDS011;11627;51.322;22.816;2023-09-30T03:55:50;27.27;;;16.02;;
22922;SDS011;11627;51.322;22.816;2023-09-30T03:58:18;26.35;;;15.73;;
22922;SDS011;11627;51.322;22.816;2023-09-30T04:00:46;27.77;;;15.95;;
22922;SDS011;11627;51.322;22.816;2023-09-30T04:03:13;26.67;;;16.58;;
22922;SDS011;11627;51.322;22.816;2023-09-30T04:05:39;24.85;;;16.30;;
22922;SDS011;11627;51.322;22.816;2023-09-30T04:08:07;27.35;;;16.80;;
22922;SDS011;11627;51.322;22.816;2023-09-30T04:10:35;25.80;;;16.45;;
22922;SDS011;11627;51.322;22.816;2023-09-30T04:13:01;28.17;;;16.45;;
22922;SDS011;11627;51.322;22.816;2023-09-30T04:15:29;24.70;;;15.57;;
22922;SDS011;11627;51.322;22.816;2023-09-30T04:17:57;26.48;;;16.58;;
22922;SDS011;11627;51.322;22.816;2023-09-30T04:20:24;25.23;;;15.50;;
22922;SDS011;11627;51.322;22.816;2023-09-30T04:22:54;28.00;;;16.30;;
22922;SDS011;11627;51.322;22.816;2023-09-30T04:25:23;25.42;;;16.17;;
22922;SDS011;11627;51.322;22.816;2023-09-30T04:27:51;26.40;;;16.42;;
22922;SDS011;11627;51.322;22.816;2023-09-30T04:30:19;24.27;;;16.27;;
22922;SDS011;11627;51.322;22.816;2023-09-30T04:32:48;28.00;;;16.17;;
22922;SDS011;11627;51.322;22.816;2023-09-30T04:35:15;25.58;;;16.35;;
22922;SDS011;11627;51.322;22.816;2023-09-30T04:37:42;25.65;;;16.83;;
22922;SDS011;11627;51.322;22.816;2023-09-30T04:40:10;24.80;;;15.75;;
22922;SDS011;11627;51.322;22.816;2023-09-30T04:42:46;25.52;;;16.60;;
22922;SDS011;11627;51.322;22.816;2023-09-30T04:45:13;25.67;;;17.27;;
22922;SDS011;11627;51.322;22.816;2023-09-30T04:47:46;25.98;;;17.42;;
22922;SDS011;11627;51.322;22.816;2023-09-30T04:50:16;34.08;;;18.77;;
22922;SDS011;11627;51.322;22.816;2023-09-30T04:52:42;26.52;;;17.95;;
22922;SDS011;11627;51.322;22.816;2023-09-30T04:55:09;36.28;;;18.23;;
22922;SDS011;11627;51.322;22.816;2023-09-30T04:57:37;28.52;;;18.90;;
22922;SDS011;11627;51.322;22.816;2023-09-30T05:00:03;29.33;;;18.10;;
22922;SDS011;11627;51.322;22.816;2023-09-30T05:02:38;27.00;;;18.77;;
22922;SDS011;11627;51.322;22.816;2023-09-30T05:05:03;31.35;;;19.65;;
22922;SDS011;11627;51.322;22.816;2023-09-30T05:07:32;31.02;;;19.70;;
22922;SDS011;11627;51.322;22.816;2023-09-30T05:10:01;35.20;;;20.13;;
22922;SDS011;11627;51.322;22.816;2023-09-30T05:12:50;27.38;;;19.50;;
22922;SDS011;11627;51.322;22.816;2023-09-30T05:15:21;32.03;;;20.70;;
22922;SDS011;11627;51.322;22.816;2023-09-30T05:17:48;33.28;;;19.58;;
22922;SDS011;11627;51.322;22.816;2023-09-30T05:20:16;33.08;;;19.65;;
22922;SDS011;11627;51.322;22.816;2023-09-30T05:22:43;31.73;;;20.55;;
22922;SDS011;11627;51.322;22.816;2023-09-30T05:25:15;34.70;;;20.75;;
22922;SDS011;11627;51.322;22.816;2023-09-30T05:27:44;29.60;;;19.70;;
22922;SDS011;11627;51.322;22.816;2023-09-30T05:30:14;28.65;;;18.55;;
22922;SDS011;11627;51.322;22.816;2023-09-30T05:32:42;31.20;;;18.55;;
22922;SDS011;11627;51.322;22.816;2023-09-30T05:35:09;33.08;;;19.80;;
22922;SDS011;11627;51.322;22.816;2023-09-30T05:37:42;27.65;;;18.17;;
22922;SDS011;11627;51.322;22.816;2023-09-30T05:40:11;32.90;;;20.70;;
22922;SDS011;11627;51.322;22.816;2023-09-30T05:42:52;40.10;;;23.25;;
22922;SDS011;11627;51.322;22.816;2023-09-30T05:45:22;37.63;;;21.33;;
22922;SDS011;11627;51.322;22.816;2023-09-30T05:47:52;33.03;;;20.58;;
22922;SDS011;11627;51.322;22.816;2023-09-30T05:50:25;30.48;;;18.85;;
22922;SDS011;11627;51.322;22.816;2023-09-30T05:52:52;27.83;;;19.67;;
22922;SDS011;11627;51.322;22.816;2023-09-30T05:55:21;29.70;;;19.40;;
22922;SDS011;11627;51.322;22.816;2023-09-30T05:57:51;33.65;;;20.67;;
22922;SDS011;11627;51.322;22.816;2023-09-30T06:00:19;31.95;;;19.70;;
22922;SDS011;11627;51.322;22.816;2023-09-30T06:02:57;30.42;;;19.48;;
22922;SDS011;11627;51.322;22.816;2023-09-30T06:05:24;28.95;;;19.52;;
22922;SDS011;11627;51.322;22.816;2023-09-30T06:07:56;30.20;;;19.83;;
22922;SDS011;11627;51.322;22.816;2023-09-30T06:10:25;30.63;;;20.13;;
22922;SDS011;11627;51.322;22.816;2023-09-30T06:12:53;35.33;;;20.35;;
22922;SDS011;11627;51.322;22.816;2023-09-30T06:15:21;30.55;;;19.52;;
22922;SDS011;11627;51.322;22.816;2023-09-30T06:17:54;39.80;;;21.08;;
22922;SDS011;11627;51.322;22.816;2023-09-30T06:20:22;29.38;;;20.50;;
22922;SDS011;11627;51.322;22.816;2023-09-30T06:22:52;29.20;;;20.05;;
22922;SDS011;11627;51.322;22.816;2023-09-30T06:25:20;27.45;;;18.23;;
22922;SDS011;11627;51.322;22.816;2023-09-30T06:27:50;30.70;;;19.38;;
22922;SDS011;11627;51.322;22.816;2023-09-30T06:30:18;32.50;;;20.13;;
22922;SDS011;11627;51.322;22.816;2023-09-30T06:32:48;31.25;;;19.48;;
22922;SDS011;11627;51.322;22.816;2023-09-30T06:35:15;27.85;;;18.60;;
22922;SDS011;11627;51.322;22.816;2023-09-30T06:37:42;31.83;;;19.30;;
22922;SDS011;11627;51.322;22.816;2023-09-30T06:40:11;26.52;;;18.77;;
22922;SDS011;11627;51.322;22.816;2023-09-30T06:42:39;29.60;;;18.90;;
22922;SDS011;11627;51.322;22.816;2023-09-30T06:45:08;34.25;;;19.42;;
22922;SDS011;11627;51.322;22.816;2023-09-30T06:47:36;28.02;;;18.02;;
22922;SDS011;11627;51.322;22.816;2023-09-30T06:50:04;26.63;;;17.50;;
22922;SDS011;11627;51.322;22.816;2023-09-30T06:52:42;35.55;;;18.58;;
22922;SDS011;11627;51.322;22.816;2023-09-30T06:55:30;26.60;;;16.83;;
22922;SDS011;11627;51.322;22.816;2023-09-30T06:57:58;26.70;;;16.90;;
22922;SDS011;11627;51.322;22.816;2023-09-30T07:00:27;25.08;;;16.48;;
22922;SDS011;11627;51.322;22.816;2023-09-30T07:02:55;27.05;;;15.93;;
22922;SDS011;11627;51.322;22.816;2023-09-30T07:05:22;23.92;;;15.88;;
22922;SDS011;11627;51.322;22.816;2023-09-30T07:07:49;26.60;;;15.25;;
22922;SDS011;11627;51.322;22.816;2023-09-30T07:10:18;20.75;;;15.20;;
22922;SDS011;11627;51.322;22.816;2023-09-30T07:12:45;26.70;;;15.90;;
22922;SDS011;11627;51.322;22.816;2023-09-30T07:15:12;23.88;;;15.65;;
22922;SDS011;11627;51.322;22.816;2023-09-30T07:17:40;24.85;;;14.98;;
22922;SDS011;11627;51.322;22.816;2023-09-30T07:20:08;21.15;;;13.55;;
22922;SDS011;11627;51.322;22.816;2023-09-30T07:22:36;22.58;;;13.88;;
22922;SDS011;11627;51.322;22.816;2023-09-30T07:25:02;23.08;;;14.45;;
22922;SDS011;11627;51.322;22.816;2023-09-30T07:27:30;28.45;;;15.02;;
22922;SDS011;11627;51.322;22.816;2023-09-30T07:29:58;23.63;;;14.27;;
22922;SDS011;11627;51.322;22.816;2023-09-30T07:32:29;23.77;;;14.52;;
22922;SDS011;11627;51.322;22.816;2023-09-30T07:34:56;23.42;;;14.77;;
22922;SDS011;11627;51.322;22.816;2023-09-30T07:37:23;27.30;;;15.60;;
22922;SDS011;11627;51.322;22.816;2023-09-30T07:39:50;27.95;;;17.23;;
22922;SDS011;11627;51.322;22.816;2023-09-30T07:42:17;24.30;;;14.98;;
22922;SDS011;11627;51.322;22.816;2023-09-30T07:44:44;22.40;;;13.73;;
22922;SDS011;11627;51.322;22.816;2023-09-30T07:47:11;22.00;;;13.77;;
22922;SDS011;11627;51.322;22.816;2023-09-30T07:49:39;26.40;;;13.23;;
22922;SDS011;11627;51.322;22.816;2023-09-30T07:52:05;22.15;;;13.55;;
22922;SDS011;11627;51.322;22.816;2023-09-30T07:54:32;23.30;;;13.73;;
22922;SDS011;11627;51.322;22.816;2023-09-30T07:56:59;20.25;;;13.52;;
22922;SDS011;11627;51.322;22.816;2023-09-30T07:59:26;30.65;;;13.63;;
22922;SDS011;11627;51.322;22.816;2023-09-30T08:01:53;22.48;;;13.73;;
22922;SDS011;11627;51.322;22.816;2023-09-30T08:04:21;22.23;;;13.57;;
22922;SDS011;11627;51.322;22.816;2023-09-30T08:06:48;26.58;;;15.02;;
22922;SDS011;11627;51.322;22.816;2023-09-30T08:09:17;21.80;;;14.68;;
22922;SDS011;11627;51.322;22.816;2023-09-30T08:11:45;26.00;;;14.93;;
22922;SDS011;11627;51.322;22.816;2023-09-30T08:14:17;28.52;;;14.65;;
22922;SDS011;11627;51.322;22.816;2023-09-30T08:16:46;27.17;;;15.02;;
22922;SDS011;11627;51.322;22.816;2023-09-30T08:19:16;28.83;;;15.95;;
22922;SDS011;11627;51.322;22.816;2023-09-30T08:21:43;24.60;;;15.00;;
22922;SDS011;11627;51.322;22.816;2023-09-30T08:24:11;24.25;;;14.93;;
22922;SDS011;11627;51.322;22.816;2023-09-30T08:26:38;26.58;;;15.15;;
22922;SDS011;11627;51.322;22.816;2023-09-30T08:29:07;22.13;;;15.02;;
22922;SDS011;11627;51.322;22.816;2023-09-30T08:31:34;23.23;;;15.02;;
22922;SDS011;11627;51.322;22.816;2023-09-30T08:34:01;24.77;;;15.07;;
22922;SDS011;11627;51.322;22.816;2023-09-30T08:36:30;25.13;;;14.82;;
22922;SDS011;11627;51.322;22.816;2023-09-30T08:38:57;24.02;;;15.18;;
22922;SDS011;11627;51.322;22.816;2023-09-30T08:41:34;25.65;;;14.60;;
22922;SDS011;11627;51.322;22.816;2023-09-30T08:44:02;33.53;;;14.02;;
22922;SDS011;11627;51.322;22.816;2023-09-30T08:46:34;28.10;;;14.50;;
22922;SDS011;11627;51.322;22.816;2023-09-30T08:49:01;22.40;;;13.77;;
22922;SDS011;11627;51.322;22.816;2023-09-30T08:51:32;23.08;;;13.75;;
22922;SDS011;11627;51.322;22.816;2023-09-30T08:53:59;26.65;;;14.02;;
22922;SDS011;11627;51.322;22.816;2023-09-30T08:56:32;20.67;;;13.48;;
22922;SDS011;11627;51.322;22.816;2023-09-30T08:59:02;20.92;;;13.45;;
22922;SDS011;11627;51.322;22.816;2023-09-30T09:01:31;22.10;;;12.70;;
22922;SDS011;11627;51.322;22.816;2023-09-30T09:03:58;22.13;;;13.50;;
22922;SDS011;11627;51.322;22.816;2023-09-30T09:06:25;25.20;;;13.63;;
22922;SDS011;11627;51.322;22.816;2023-09-30T09:08:53;26.17;;;12.70;;
22922;SDS011;11627;51.322;22.816;2023-09-30T09:11:20;21.63;;;13.30;;
22922;SDS011;11627;51.322;22.816;2023-09-30T09:13:51;22.60;;;13.55;;
22922;SDS011;11627;51.322;22.816;2023-09-30T09:16:27;19.15;;;12.75;;
22922;SDS011;11627;51.322;22.816;2023-09-30T09:18:57;22.85;;;13.63;;
22922;SDS011;11627;51.322;22.816;2023-09-30T09:21:24;22.52;;;13.35;;
22922;SDS011;11627;51.322;22.816;2023-09-30T09:23:54;20.75;;;13.85;;
22922;SDS011;11627;51.322;22.816;2023-09-30T09:26:30;22.58;;;13.55;;
22922;SDS011;11627;51.322;22.816;2023-09-30T09:29:03;23.63;;;13.52;;
22922;SDS011;11627;51.322;22.816;2023-09-30T09:31:34;19.65;;;13.55;;
22922;SDS011;11627;51.322;22.816;2023-09-30T09:34:04;25.80;;;13.35;;
22922;SDS011;11627;51.322;22.816;2023-09-30T09:39:31;21.23;;;13.73;;
22922;SDS011;11627;51.322;22.816;2023-09-30T09:41:59;26.30;;;14.30;;
22922;SDS011;11627;51.322;22.816;2023-09-30T09:44:26;22.58;;;12.95;;
22922;SDS011;11627;51.322;22.816;2023-09-30T09:46:55;21.23;;;13.63;;
22922;SDS011;11627;51.322;22.816;2023-09-30T09:49:26;25.85;;;14.15;;
22922;SDS011;11627;51.322;22.816;2023-09-30T09:51:56;26.02;;;13.68;;
22922;SDS011;11627;51.322;22.816;2023-09-30T09:54:23;21.10;;;13.63;;
22922;SDS011;11627;51.322;22.816;2023-09-30T09:56:51;21.00;;;12.85;;
22922;SDS011;11627;51.322;22.816;2023-09-30T09:59:23;22.80;;;13.43;;
22922;SDS011;11627;51.322;22.816;2023-09-30T10:01:53;19.80;;;13.00;;
22922;SDS011;11627;51.322;22.816;2023-09-30T10:04:21;21.83;;;13.60;;
22922;SDS011;11627;51.322;22.816;2023-09-30T10:06:51;20.48;;;13.40;;
22922;SDS011;11627;51.322;22.816;2023-09-30T10:09:19;25.05;;;14.25;;
22922;SDS011;11627;51.322;22.816;2023-09-30T10:11:48;23.17;;;13.05;;
22922;SDS011;11627;51.322;22.816;2023-09-30T10:14:31;20.30;;;13.25;;
22922;SDS011;11627;51.322;22.816;2023-09-30T10:17:00;20.73;;;14.25;;
22922;SDS011;11627;51.322;22.816;2023-09-30T10:19:27;26.08;;;14.02;;
22922;SDS011;11627;51.322;22.816;2023-09-30T10:25:32;21.27;;;13.85;;
22922;SDS011;11627;51.322;22.816;2023-09-30T10:28:26;19.40;;;12.68;;
22922;SDS011;11627;51.322;22.816;2023-09-30T10:31:12;19.27;;;12.77;;
22922;SDS011;11627;51.322;22.816;2023-09-30T10:36:39;17.65;;;13.13;;
22922;SDS011;11627;51.322;22.816;2023-09-30T10:39:10;24.10;;;13.85;;
22922;SDS011;11627;51.322;22.816;2023-09-30T10:41:49;22.77;;;12.73;;
22922;SDS011;11627;51.322;22.816;2023-09-30T10:46:52;22.67;;;13.90;;
22922;SDS011;11627;51.322;22.816;2023-09-30T10:54:49;27.50;;;14.65;;
22922;SDS011;11627;51.322;22.816;2023-09-30T10:57:26;18.83;;;13.60;;
22922;SDS011;11627;51.322;22.816;2023-09-30T11:02:47;25.25;;;13.82;;
22922;SDS011;11627;51.322;22.816;2023-09-30T11:05:19;20.80;;;13.55;;
22922;SDS011;11627;51.322;22.816;2023-09-30T11:07:50;25.58;;;14.32;;
22922;SDS011;11627;51.322;22.816;2023-09-30T11:10:20;23.10;;;14.18;;
22922;SDS011;11627;51.322;22.816;2023-09-30T11:12:57;24.13;;;15.13;;
22922;SDS011;11627;51.322;22.816;2023-09-30T11:15:25;28.25;;;15.38;;
22922;SDS011;11627;51.322;22.816;2023-09-30T11:17:54;20.60;;;14.90;;
22922;SDS011;11627;51.322;22.816;2023-09-30T11:20:45;22.00;;;13.77;;
22922;SDS011;11627;51.322;22.816;2023-09-30T11:23:12;22.30;;;14.77;;
22922;SDS011;11627;51.322;22.816;2023-09-30T11:25:42;20.52;;;14.20;;
22922;SDS011;11627;51.322;22.816;2023-09-30T11:28:17;26.05;;;15.20;;
22922;SDS011;11627;51.322;22.816;2023-09-30T11:30:58;19.83;;;15.02;;
22922;SDS011;11627;51.322;22.816;2023-09-30T11:33:32;21.17;;;14.25;;
22922;SDS011;11627;51.322;22.816;2023-09-30T11:36:15;25.80;;;15.38;;
22922;SDS011;11627;51.322;22.816;2023-09-30T11:38:45;23.83;;;15.00;;
22922;SDS011;11627;51.322;22.816;2023-09-30T11:41:15;19.50;;;13.68;;
22922;SDS011;11627;51.322;22.816;2023-09-30T11:44:03;26.95;;;14.20;;
22922;SDS011;11627;51.322;22.816;2023-09-30T11:49:38;22.27;;;15.60;;
22922;SDS011;11627;51.322;22.816;2023-09-30T11:52:16;21.27;;;14.32;;
22922;SDS011;11627;51.322;22.816;2023-09-30T11:54:43;21.63;;;13.85;;
22922;SDS011;11627;51.322;22.816;2023-09-30T11:57:13;21.90;;;14.13;;
22922;SDS011;11627;51.322;22.816;2023-09-30T11:59:43;21.85;;;14.45;;
22922;SDS011;11627;51.322;22.816;2023-09-30T12:02:15;20.70;;;14.73;;
22922;SDS011;11627;51.322;22.816;2023-09-30T12:04:46;19.77;;;13.52;;
22922;SDS011;11627;51.322;22.816;2023-09-30T12:07:13;22.20;;;15.35;;
22922;SDS011;11627;51.322;22.816;2023-09-30T12:09:40;21.45;;;14.70;;
22922;SDS011;11627;51.322;22.816;2023-09-30T12:12:08;18.98;;;13.23;;
22922;SDS011;11627;51.322;22.816;2023-09-30T12:14:35;18.83;;;12.60;;
22922;SDS011;11627;51.322;22.816;2023-09-30T12:17:03;20.48;;;12.23;;
22922;SDS011;11627;51.322;22.816;2023-09-30T12:19:37;17.65;;;12.20;;
22922;SDS011;11627;51.322;22.816;2023-09-30T12:22:03;16.55;;;10.82;;
22922;SDS011;11627;51.322;22.816;2023-09-30T12:24:32;16.95;;;11.10;;
22922;SDS011;11627;51.322;22.816;2023-09-30T12:26:58;16.27;;;10.10;;
22922;SDS011;11627;51.322;22.816;2023-09-30T12:29:25;17.73;;;10.73;;
22922;SDS011;11627;51.322;22.816;2023-09-30T12:31:53;14.25;;;10.45;;
22922;SDS011;11627;51.322;22.816;2023-09-30T12:34:20;15.38;;;10.90;;
22922;SDS011;11627;51.322;22.816;2023-09-30T12:36:53;18.15;;;10.88;;
22922;SDS011;11627;51.322;22.816;2023-09-30T12:39:21;19.23;;;11.82;;
22922;SDS011;11627;51.322;22.816;2023-09-30T12:41:50;26.65;;;16.15;;
22922;SDS011;11627;51.322;22.816;2023-09-30T12:44:17;22.42;;;13.82;;
22922;SDS011;11627;51.322;22.816;2023-09-30T12:46:45;26.17;;;18.00;;
22922;SDS011;11627;51.322;22.816;2023-09-30T12:49:12;23.25;;;15.20;;
22922;SDS011;11627;51.322;22.816;2023-09-30T12:51:41;21.67;;;14.98;;
22922;SDS011;11627;51.322;22.816;2023-09-30T12:54:08;34.00;;;20.52;;
22922;SDS011;11627;51.322;22.816;2023-09-30T12:56:37;33.22;;;20.27;;
22922;SDS011;11627;51.322;22.816;2023-09-30T12:59:04;35.58;;;22.45;;
22922;SDS011;11627;51.322;22.816;2023-09-30T13:01:32;33.90;;;22.25;;
22922;SDS011;11627;51.322;22.816;2023-09-30T13:04:00;26.85;;;20.00;;
22922;SDS011;11627;51.322;22.816;2023-09-30T13:06:28;40.65;;;25.63;;
22922;SDS011;11627;51.322;22.816;2023-09-30T13:08:56;29.00;;;20.35;;
22922;SDS011;11627;51.322;22.816;2023-09-30T13:11:23;32.95;;;21.25;;
22922;SDS011;11627;51.322;22.816;2023-09-30T13:13:50;30.10;;;20.25;;
22922;SDS011;11627;51.322;22.816;2023-09-30T13:16:17;42.30;;;26.20;;
22922;SDS011;11627;51.322;22.816;2023-09-30T13:18:45;42.88;;;26.63;;
22922;SDS011;11627;51.322;22.816;2023-09-30T13:21:12;40.53;;;25.73;;
22922;SDS011;11627;51.322;22.816;2023-09-30T13:23:39;40.03;;;26.80;;
22922;SDS011;11627;51.322;22.816;2023-09-30T13:26:07;44.75;;;27.23;;
22922;SDS011;11627;51.322;22.816;2023-09-30T13:28:34;45.05;;;27.20;;
22922;SDS011;11627;51.322;22.816;2023-09-30T13:31:01;45.38;;;27.05;;
22922;SDS011;11627;51.322;22.816;2023-09-30T13:33:29;43.10;;;26.50;;
22922;SDS011;11627;51.322;22.816;2023-09-30T13:35:57;40.13;;;27.05;;
22922;SDS011;11627;51.322;22.816;2023-09-30T13:38:24;40.08;;;26.75;;
22922;SDS011;11627;51.322;22.816;2023-09-30T13:40:52;34.67;;;24.25;;
22922;SDS011;11627;51.322;22.816;2023-09-30T13:43:19;36.28;;;24.20;;
22922;SDS011;11627;51.322;22.816;2023-09-30T13:45:47;35.95;;;23.98;;
22922;SDS011;11627;51.322;22.816;2023-09-30T13:48:14;41.00;;;25.30;;
22922;SDS011;11627;51.322;22.816;2023-09-30T13:50:42;34.30;;;24.00;;
22922;SDS011;11627;51.322;22.816;2023-09-30T13:53:10;38.88;;;24.92;;
22922;SDS011;11627;51.322;22.816;2023-09-30T13:55:39;39.13;;;25.08;;
22922;SDS011;11627;51.322;22.816;2023-09-30T13:58:05;38.30;;;24.05;;
22922;SDS011;11627;51.322;22.816;2023-09-30T14:00:32;36.00;;;23.50;;
22922;SDS011;11627;51.322;22.816;2023-09-30T14:03:01;34.13;;;23.35;;
22922;SDS011;11627;51.322;22.816;2023-09-30T14:05:30;36.70;;;23.95;;
22922;SDS011;11627;51.322;22.816;2023-09-30T14:07:57;35.05;;;23.38;;
22922;SDS011;11627;51.322;22.816;2023-09-30T14:10:24;32.35;;;21.63;;
22922;SDS011;11627;51.322;22.816;2023-09-30T14:12:51;30.63;;;21.00;;
22922;SDS011;11627;51.322;22.816;2023-09-30T14:15:19;37.20;;;21.60;;
22922;SDS011;11627;51.322;22.816;2023-09-30T14:17:47;31.00;;;21.33;;
22922;SDS011;11627;51.322;22.816;2023-09-30T14:20:15;29.35;;;21.27;;
22922;SDS011;11627;51.322;22.816;2023-09-30T14:22:43;31.67;;;21.40;;
22922;SDS011;11627;51.322;22.816;2023-09-30T14:25:09;27.88;;;19.02;;
22922;SDS011;11627;51.322;22.816;2023-09-30T14:27:36;30.40;;;20.38;;
22922;SDS011;11627;51.322;22.816;2023-09-30T14:30:03;26.30;;;17.75;;
22922;SDS011;11627;51.322;22.816;2023-09-30T14:32:32;28.30;;;15.95;;
22922;SDS011;11627;51.322;22.816;2023-09-30T14:34:59;18.75;;;13.20;;
22922;SDS011;11627;51.322;22.816;2023-09-30T14:37:26;17.65;;;11.35;;
22922;SDS011;11627;51.322;22.816;2023-09-30T14:39:56;15.82;;;10.60;;
22922;SDS011;11627;51.322;22.816;2023-09-30T14:42:23;15.75;;;10.70;;